Delta Virtual Airport Information Service

Burbank Bob Hope Airport

ICAO: KBUR Country: United States
Latitude: 34.2007 Longitude: -118.358
Latest Arrival : SWA909 (1F) (KLAS-KBUR) Latest Departure : SWA4642 (C) (KBUR-KLAS)


WX CaptureLIVE
Data provided by noaa.gov | Fetched at 15:37:11

METAR : KBUR 091953Z 17009KT 10SM CLR 28/14 A2995 RMK AO2 SLP128 T02830139

TAF : KBUR 091738Z 0918/1018 14006KT P6SM SKC FM092100 18008KT P6SM SKC FM100400 13005KT P6SM SKC FM101200 VRB05KT P6SM SKC


Runway Data for KBUR
Data provided by openaviationdata.com

Runway ID Mag Var Hdg Length Elevation Surface ILS Freq ILS Id ILS Slope
8 15 75° 5795 ft 721 ft Asphalt 109.5 IBUR 3
15 15 152° 6895 ft 721 ft Asphalt -- -- --
26 15 255° 5795 ft 721 ft Asphalt -- -- --
33 15 332° 6895 ft 721 ft Asphalt -- -- --

Burbank Bob Hope Airport, United States
Use only for reference purposes



Not for navigational purposes.